Time;durP1;ratioP1;P1;durP2;ratioP2;P2;SDS_P1;SDS_P2;PMS_P1;PMS_P2;Temp;Humidity;BMP_temperature;BMP_pressure;BME280_temperature;BME280_humidity;BME280_pressure;Samples;Min_cycle;Max_cycle;Signal;HPM_P1;HPM_P2
2021/12/17 00:00:25;;;;;;;16.70;11.43;;;;;;;7.61;86.86;103097.53;5051914;28;20575;-83
2021/12/17 00:06:06;;;;;;;17.43;10.53;;;;;;;7.57;85.84;103082.53;5043309;28;20233;-84
2021/12/17 00:08:33;;;;;;;17.93;10.50;;;;;;;7.55;86.89;103073.72;5039571;28;20324;-82
2021/12/17 00:11:00;;;;;;;18.47;10.97;;;;;;;7.53;86.21;103087.00;5042890;28;20205;-85
2021/12/17 00:13:26;;;;;;;15.20;9.83;;;;;;;7.50;86.78;103084.41;5053381;28;20538;-84
2021/12/17 00:15:54;;;;;;;20.90;10.20;;;;;;;7.50;86.73;103089.72;5038054;28;20700;-85
2021/12/17 00:18:26;;;;;;;18.83;11.13;;;;;;;7.49;86.48;103090.59;5045328;28;20248;-84
2021/12/17 00:40:32;;;;;;;18.10;9.97;;;;;;;7.43;86.78;103097.75;5038852;28;20221;-84
2021/12/17 00:48:37;;;;;;;14.70;9.30;;;;;;;7.43;87.15;103079.19;5038925;28;20213;-85
2021/12/17 00:53:58;;;;;;;14.77;9.17;;;;;;;7.44;87.40;103078.28;5014425;28;20198;-83
2021/12/17 00:56:25;;;;;;;15.83;9.37;;;;;;;7.44;87.76;103088.91;5039016;28;20626;-83
2021/12/17 00:58:52;;;;;;;20.03;11.20;;;;;;;7.45;87.34;103086.22;5037519;28;20226;-84
2021/12/17 01:01:19;;;;;;;16.33;10.67;;;;;;;7.45;87.45;103096.84;5037990;28;20202;-83
2021/12/17 01:03:47;;;;;;;18.07;10.67;;;;;;;7.45;87.52;103088.00;5037896;28;20213;-83
2021/12/17 01:06:14;;;;;;;18.27;9.80;;;;;;;7.46;87.84;103090.63;5038240;28;20237;-83
2021/12/17 01:08:40;;;;;;;19.67;10.60;;;;;;;7.47;87.93;103084.44;5038249;28;20209;-84
2021/12/17 01:11:08;;;;;;;16.77;10.87;;;;;;;7.47;87.60;103081.78;5038407;28;20220;-83
2021/12/17 01:13:37;;;;;;;22.30;11.73;;;;;;;7.48;88.46;103075.59;5038818;28;20213;-82
2021/12/17 01:16:04;;;;;;;18.63;11.17;;;;;;;7.48;87.76;103080.91;5038434;28;20316;-84
2021/12/17 01:18:43;;;;;;;17.63;11.23;;;;;;;7.49;88.19;103073.81;5039514;28;20202;-83
2021/12/17 01:21:32;;;;;;;19.20;11.37;;;;;;;7.50;87.67;103078.22;5037934;28;20202;-83
2021/12/17 01:40:56;;;;;;;21.30;12.60;;;;;;;7.53;87.38;103108.22;5038285;28;20220;-84
2021/12/17 01:43:23;;;;;;;18.20;10.33;;;;;;;7.51;88.09;103107.38;5059530;28;20211;-83
2021/12/17 01:45:50;;;;;;;17.73;11.13;;;;;;;7.53;87.32;103110.84;5059677;28;20785;-83
2021/12/17 01:48:23;;;;;;;23.00;12.00;;;;;;;7.52;87.64;103103.84;5058964;28;20201;-84
2021/12/17 01:56:37;;;;;;;19.53;11.87;;;;;;;7.52;87.29;103095.00;5040657;28;20298;-84
2021/12/17 02:01:49;;;;;;;22.33;13.07;;;;;;;7.50;87.26;103095.00;5039943;28;20198;-83
2021/12/17 02:04:16;;;;;;;22.47;12.23;;;;;;;7.50;88.03;103099.44;5039292;28;20206;-83
2021/12/17 02:06:43;;;;;;;20.10;12.00;;;;;;;7.48;87.96;103104.75;5039135;28;20321;-84
2021/12/17 02:09:47;;;;;;;18.87;11.57;;;;;;;7.49;87.34;103109.16;5038918;28;20841;-81
2021/12/17 02:12:39;;;;;;;23.00;12.20;;;;;;;7.49;87.88;103097.69;5040079;28;20837;-81
2021/12/17 02:21:15;;;;;;;24.03;12.80;;;;;;;7.47;87.52;103095.03;5038980;28;20229;-83
2021/12/17 02:29:37;;;;;;;21.03;11.37;;;;;;;7.44;87.83;103087.13;5056322;28;20185;-83
2021/12/17 02:32:06;;;;;;;21.60;11.83;;;;;;;7.45;86.65;103102.13;5044872;28;20202;-82
2021/12/17 02:34:52;;;;;;;19.77;11.73;;;;;;;7.45;86.77;103104.78;5036126;28;20205;-83
2021/12/17 02:37:24;;;;;;;24.27;12.27;;;;;;;7.45;87.34;103101.25;5037072;28;20210;-82
2021/12/17 02:40:06;;;;;;;20.23;12.23;;;;;;;7.46;87.14;103100.38;5036844;28;20222;-83
2021/12/17 02:45:31;;;;;;;21.27;12.70;;;;;;;7.44;86.62;103091.53;5037701;28;20194;-81
2021/12/17 02:45:32;;;;;;;22.77;12.70;;;;;;;7.45;86.89;103080.91;5026174;28;20635;-80
2021/12/17 02:48:01;;;;;;;22.40;13.07;;;;;;;7.45;86.96;103072.09;5037230;28;20202;-82
2021/12/17 02:50:29;;;;;;;24.00;14.07;;;;;;;7.43;87.39;103074.75;5037325;28;20301;-81
2021/12/17 02:53:00;;;;;;;23.63;12.70;;;;;;;7.41;87.06;103073.88;5037824;28;20292;-84
2021/12/17 02:55:29;;;;;;;20.83;12.67;;;;;;;7.42;86.95;103059.75;5030998;28;20229;-81
2021/12/17 02:57:57;;;;;;;24.97;13.77;;;;;;;7.41;87.20;103065.94;5057357;28;20217;-82
2021/12/17 03:00:24;;;;;;;27.80;14.20;;;;;;;7.39;87.53;103059.78;5036063;28;20230;-84
2021/12/17 03:02:51;;;;;;;25.53;14.93;;;;;;;7.39;86.74;103059.78;5035286;28;20212;-85
2021/12/17 03:05:18;;;;;;;27.00;14.27;;;;;;;7.36;87.05;103067.75;5051940;28;20230;-85
2021/12/17 03:07:47;;;;;;;21.83;13.50;;;;;;;7.34;87.03;103074.88;5043815;28;20206;-85
2021/12/17 03:10:15;;;;;;;26.57;13.03;;;;;;;7.35;87.57;103084.56;5053411;28;20205;-83
2021/12/17 03:12:46;;;;;;;24.87;14.43;;;;;;;7.34;87.08;103077.53;5059923;28;20209;-81
2021/12/17 03:15:22;;;;;;;24.60;13.53;;;;;;;7.36;86.95;103086.31;5046470;28;20783;-84
2021/12/17 03:23:28;;;;;;;24.53;13.13;;;;;;;7.38;86.79;103073.94;5040696;28;20208;-82
2021/12/17 03:25:57;;;;;;;26.73;14.23;;;;;;;7.39;87.21;103077.44;5026789;28;20763;-81
2021/12/17 03:28:24;;;;;;;31.40;14.93;;;;;;;7.39;86.77;103078.34;5045773;28;20271;-82
2021/12/17 03:30:50;;;;;;;28.27;13.33;;;;;;;7.39;86.92;103073.03;5055602;28;20691;-81
2021/12/17 03:33:17;;;;;;;21.00;12.50;;;;;;;7.40;86.98;103066.84;5040568;28;20297;-81
2021/12/17 03:35:44;;;;;;;25.77;13.27;;;;;;;7.40;87.00;103069.47;5052603;28;20249;-83
2021/12/17 03:38:11;;;;;;;25.90;13.70;;;;;;;7.41;86.68;103076.53;5038630;28;20646;-81
2021/12/17 03:40:40;;;;;;;23.83;13.50;;;;;;;7.42;86.93;103080.06;5044180;28;20330;-81
2021/12/17 03:43:12;;;;;;;25.20;13.00;;;;;;;7.42;87.59;103074.78;5060887;28;20206;-81
2021/12/17 03:45:40;;;;;;;27.30;13.87;;;;;;;7.43;87.05;103079.19;5046173;28;20229;-81
2021/12/17 03:48:06;;;;;;;24.43;13.67;;;;;;;7.42;86.93;103075.66;5057285;28;20233;-83
2021/12/17 03:50:35;;;;;;;24.87;13.67;;;;;;;7.43;86.71;103076.53;5060162;28;20489;-82
2021/12/17 03:53:02;;;;;;;24.87;13.67;;;;;;;7.43;87.33;103073.88;5054538;28;20222;-82
2021/12/17 03:55:29;;;;;;;27.83;13.17;;;;;;;7.42;87.10;103080.97;5040029;28;20218;-84
2021/12/17 03:57:58;;;;;;;24.90;13.50;;;;;;;7.44;87.36;103081.81;5039491;28;20576;-84
2021/12/17 04:00:27;;;;;;;21.70;12.87;;;;;;;7.45;87.51;103085.34;5039687;28;20237;-84
2021/12/17 04:02:54;;;;;;;23.07;12.77;;;;;;;7.45;87.17;103077.41;5040245;28;20213;-82
2021/12/17 04:05:21;;;;;;;24.53;12.80;;;;;;;7.45;87.20;103072.97;5043242;28;20317;-84
2021/12/17 04:07:47;;;;;;;26.63;13.17;;;;;;;7.46;87.71;103076.50;5038733;28;20210;-84
2021/12/17 04:10:15;;;;;;;25.93;13.93;;;;;;;7.47;87.40;103073.84;5033176;28;20211;-85
2021/12/17 04:12:50;;;;;;;26.87;13.63;;;;;;;7.49;87.05;103081.78;5058313;28;20649;-82
2021/12/17 04:15:17;;;;;;;26.00;13.63;;;;;;;7.50;86.94;103087.06;5026711;28;20261;-85
2021/12/17 04:17:48;;;;;;;26.37;14.53;;;;;;;7.52;87.23;103087.03;5051559;28;20213;-85
2021/12/17 04:20:15;;;;;;;28.97;14.60;;;;;;;7.51;87.63;103086.16;5057861;28;20229;-84
2021/12/17 04:22:41;;;;;;;30.40;14.80;;;;;;;7.52;87.79;103076.44;5046149;28;20214;-82
2021/12/17 04:25:08;;;;;;;31.23;15.30;;;;;;;7.51;88.38;103074.69;5049942;28;20229;-81
2021/12/17 04:27:35;;;;;;;25.77;14.47;;;;;;;7.52;87.94;103068.47;5038882;28;20217;-81
2021/12/17 04:30:02;;;;;;;32.27;16.13;;;;;;;7.52;87.90;103061.41;5040981;28;20570;-82
2021/12/17 04:32:28;;;;;;;34.07;15.83;;;;;;;7.51;88.50;103064.94;5037719;28;20198;-82
2021/12/17 04:34:56;;;;;;;30.87;15.07;;;;;;;7.51;88.30;103067.59;5037563;28;20210;-81
2021/12/17 04:37:23;;;;;;;33.50;15.77;;;;;;;7.50;88.41;103065.84;5046332;28;20648;-82
2021/12/17 04:39:50;;;;;;;29.93;15.30;;;;;;;7.51;88.76;103067.59;5051090;28;20231;-82
2021/12/17 04:42:23;;;;;;;31.13;15.60;;;;;;;7.50;88.71;103063.19;5039949;28;20297;-86
2021/12/17 04:44:53;;;;;;;36.77;16.10;;;;;;;7.50;88.66;103057.88;5033341;28;20213;-83
2021/12/17 04:58:19;;;;;;;29.50;15.47;;;;;;;7.48;90.03;103072.06;5026166;28;20680;-83
2021/12/17 05:00:45;;;;;;;35.33;16.13;;;;;;;7.47;90.13;103065.88;5032526;28;20248;-83
2021/12/17 05:03:12;;;;;;;35.00;15.73;;;;;;;7.48;90.33;103075.59;5045616;28;20219;-83
2021/12/17 05:05:40;;;;;;;32.03;16.10;;;;;;;7.47;90.79;103081.78;5039362;28;20230;-83
2021/12/17 05:08:11;;;;;;;33.03;16.40;;;;;;;7.45;91.07;103080.91;5041142;28;20854;-83
2021/12/17 05:11:02;;;;;;;33.33;16.73;;;;;;;7.46;90.26;103082.69;5048045;28;20331;-83
2021/12/17 05:19:03;;;;;;;31.67;15.47;;;;;;;7.43;91.33;103077.41;5034252;28;20750;-83
2021/12/17 05:21:31;;;;;;;33.73;16.40;;;;;;;7.44;90.57;103068.56;5035750;28;20248;-83
2021/12/17 05:23:57;;;;;;;36.20;15.93;;;;;;;7.43;91.06;103066.81;5039814;28;20209;-83
2021/12/17 05:26:24;;;;;;;35.30;17.10;;;;;;;7.42;91.58;103062.41;5043943;28;20222;-83
2021/12/17 05:28:53;;;;;;;41.47;18.77;;;;;;;7.43;91.53;103072.09;5037252;28;20214;-83
2021/12/17 05:31:21;;;;;;;45.37;18.67;;;;;;;7.42;91.41;103069.47;5037304;28;20206;-85
2021/12/17 05:33:48;;;;;;;43.77;18.30;;;;;;;7.41;91.52;103081.84;5018005;28;20206;-84
2021/12/17 05:36:15;;;;;;;40.13;19.43;;;;;;;7.42;91.43;103098.63;5024733;28;20226;-83
2021/12/17 05:38:43;;;;;;;39.90;17.77;;;;;;;7.42;92.08;103094.22;5028986;28;20194;-85
2021/12/17 05:41:09;;;;;;;35.00;16.73;;;;;;;7.42;91.61;103090.69;5029434;28;20210;-83
2021/12/17 05:43:37;;;;;;;34.70;17.10;;;;;;;7.42;92.36;103091.56;5030152;28;20565;-83
2021/12/17 05:46:09;;;;;;;40.23;18.27;;;;;;;7.42;92.07;103080.97;5032183;28;20262;-83
2021/12/17 05:48:37;;;;;;;37.67;17.53;;;;;;;7.42;92.53;103091.56;5028172;28;20201;-86
2021/12/17 05:51:07;;;;;;;34.23;16.93;;;;;;;7.42;92.00;103094.22;5037488;28;20211;-87
2021/12/17 05:53:34;;;;;;;42.53;17.30;;;;;;;7.42;92.46;103085.38;5027051;28;20888;-84
2021/12/17 05:56:03;;;;;;;40.27;17.83;;;;;;;7.43;92.86;103079.19;5023985;28;20229;-84
2021/12/17 05:58:31;;;;;;;35.83;17.50;;;;;;;7.41;92.48;103071.25;5024113;28;20199;-87
2021/12/17 06:00:59;;;;;;;36.87;16.97;;;;;;;7.42;92.80;103067.69;5022659;28;20230;-87
2021/12/17 06:03:25;;;;;;;38.10;17.47;;;;;;;7.42;92.94;103073.00;5020456;28;20293;-85
2021/12/17 06:05:52;;;;;;;44.33;17.40;;;;;;;7.41;92.09;103073.88;5027521;28;20225;-85
2021/12/17 06:08:19;;;;;;;39.13;18.53;;;;;;;7.41;92.45;103062.41;5027541;28;20206;-83
2021/12/17 06:10:45;;;;;;;39.73;18.17;;;;;;;7.42;92.74;103078.31;5036360;28;20225;-83
2021/12/17 06:13:13;;;;;;;37.07;17.50;;;;;;;7.42;93.05;103078.31;5028375;28;20217;-85
2021/12/17 06:15:40;;;;;;;41.03;16.57;;;;;;;7.43;92.71;103072.09;5030563;28;20222;-84
2021/12/17 06:18:06;;;;;;;37.53;17.87;;;;;;;7.42;93.09;103065.03;5029848;28;20200;-84
2021/12/17 06:20:33;;;;;;;44.63;18.07;;;;;;;7.41;93.42;103063.28;5021299;28;20225;-85
2021/12/17 06:23:00;;;;;;;41.37;17.20;;;;;;;7.40;92.75;103064.19;5033651;28;20207;-84
2021/12/17 06:25:26;;;;;;;40.57;17.70;;;;;;;7.40;93.34;103071.25;5031818;28;20218;-84
2021/12/17 06:27:53;;;;;;;45.60;19.27;;;;;;;7.40;93.10;103082.75;5028466;28;20217;-86
2021/12/17 06:30:21;;;;;;;39.20;18.07;;;;;;;7.39;94.06;103086.28;5026207;28;20206;-84
2021/12/17 06:32:48;;;;;;;40.37;18.43;;;;;;;7.39;93.81;103082.75;5038478;28;20210;-85
2021/12/17 06:35:15;;;;;;;44.13;19.03;;;;;;;7.39;93.68;103078.34;5033853;28;20225;-84
2021/12/17 06:37:43;;;;;;;36.23;17.87;;;;;;;7.39;93.89;103080.97;5029250;28;20739;-84
2021/12/17 06:40:11;;;;;;;43.30;19.13;;;;;;;7.39;94.21;103077.44;5037398;28;20233;-85
2021/12/17 06:42:38;;;;;;;39.03;17.63;;;;;;;7.39;94.00;103078.34;5027387;28;20198;-85
2021/12/17 06:45:14;;;;;;;40.53;18.50;;;;;;;7.40;94.28;103092.47;5029723;28;20206;-84
2021/12/17 06:47:45;;;;;;;41.30;18.10;;;;;;;7.39;94.33;103090.72;5050728;28;20205;-84
2021/12/17 06:56:18;;;;;;;39.17;16.67;;;;;;;7.39;94.55;103090.72;5036072;28;20232;-83
2021/12/17 06:58:51;;;;;;;38.33;15.90;;;;;;;7.38;94.39;103089.81;5036320;28;20730;-83
2021/12/17 07:05:50;;;;;;;39.33;15.50;;;;;;;7.39;94.49;103094.25;5041028;28;20206;-82
2021/12/17 07:10:14;;;;;;;33.80;16.27;;;;;;;7.38;94.66;103083.66;5018274;28;20294;-82
2021/12/17 07:18:41;;;;;;;33.50;15.50;;;;;;;7.38;94.85;103076.56;5044830;28;20273;-83
2021/12/17 07:34:49;;;;;;;35.63;15.57;;;;;;;7.39;95.42;103090.72;5006066;28;20230;-82
2021/12/17 07:40:02;;;;;;;35.70;15.17;;;;;;;7.38;95.03;103084.53;5035349;28;20300;-81
2021/12/17 07:42:29;;;;;;;34.47;15.33;;;;;;;7.38;94.87;103083.66;5032181;28;20253;-83
2021/12/17 07:44:56;;;;;;;42.13;16.87;;;;;;;7.39;95.36;103086.28;5034333;28;20207;-83
2021/12/17 07:47:23;;;;;;;33.00;14.93;;;;;;;7.40;95.28;103089.81;5034953;28;20198;-83
2021/12/17 07:49:50;;;;;;;35.73;15.77;;;;;;;7.39;95.02;103102.19;5026926;28;20215;-84
2021/12/17 07:52:17;;;;;;;33.60;14.40;;;;;;;7.39;95.05;103090.72;5031926;28;20233;-84
2021/12/17 07:54:44;;;;;;;36.20;14.90;;;;;;;7.40;95.98;103087.16;5038544;28;20303;-83
2021/12/17 07:57:11;;;;;;;33.13;13.93;;;;;;;7.41;95.92;103087.16;5032287;28;20708;-84
2021/12/17 07:59:39;;;;;;;29.67;13.10;;;;;;;7.41;96.25;103095.09;5025262;28;20199;-84
2021/12/17 08:02:06;;;;;;;30.47;13.93;;;;;;;7.43;96.13;103088.00;5028897;28;20226;-83
2021/12/17 08:04:32;;;;;;;30.67;12.90;;;;;;;7.43;95.88;103066.81;5035407;28;20292;-83
2021/12/17 08:06:59;;;;;;;29.93;12.93;;;;;;;7.44;95.64;103063.25;5031622;28;20226;-82
2021/12/17 08:09:28;;;;;;;31.33;14.27;;;;;;;7.48;96.33;103074.72;5038380;28;20198;-83
2021/12/17 08:11:56;;;;;;;32.37;13.87;;;;;;;7.48;96.39;103075.59;5044626;28;20198;-83
2021/12/17 08:14:24;;;;;;;29.87;13.33;;;;;;;7.49;96.08;103077.34;5042508;28;20215;-83
2021/12/17 08:16:57;;;;;;;27.40;12.60;;;;;;;7.50;96.48;103079.09;5041962;28;20238;-83
2021/12/17 08:24:57;;;;;;;21.90;10.93;;;;;;;7.52;96.49;103079.97;5047564;28;20201;-84
2021/12/17 08:27:30;;;;;;;22.20;11.03;;;;;;;7.52;96.47;103079.09;5048145;28;20293;-83
2021/12/17 08:30:20;;;;;;;23.40;10.77;;;;;;;7.52;96.43;103081.75;5051472;28;20550;-83
2021/12/17 08:32:47;;;;;;;24.07;10.47;;;;;;;7.51;96.07;103079.97;5023733;28;20630;-82
2021/12/17 08:35:14;;;;;;;19.37;9.63;;;;;;;7.51;96.11;103086.16;5038394;28;20280;-83
2021/12/17 08:37:41;;;;;;;18.80;8.90;;;;;;;7.51;96.15;103087.94;5049703;28;20202;-82
2021/12/17 08:40:10;;;;;;;17.60;7.90;;;;;;;7.50;96.75;103088.84;5046344;28;20297;-83
2021/12/17 08:42:37;;;;;;;16.97;8.43;;;;;;;7.49;96.85;103098.56;5034435;28;20226;-83
2021/12/17 08:45:04;;;;;;;15.70;7.17;;;;;;;7.48;95.91;103095.94;5053701;28;20723;-83
2021/12/17 08:47:32;;;;;;;14.63;7.53;;;;;;;7.48;95.95;103103.88;5045009;28;20212;-83
2021/12/17 08:50:04;;;;;;;12.23;6.93;;;;;;;7.46;96.69;103101.25;5057523;28;20655;-83
2021/12/17 08:52:31;;;;;;;13.23;6.43;;;;;;;7.45;95.79;103104.78;5042654;28;20198;-82
2021/12/17 08:54:57;;;;;;;11.60;7.50;;;;;;;7.45;95.95;103106.56;5045970;28;20208;-83
2021/12/17 08:57:25;;;;;;;12.03;7.53;;;;;;;7.44;96.17;103118.06;5041494;28;20217;-83
2021/12/17 08:59:55;;;;;;;10.87;7.17;;;;;;;7.43;95.60;103117.19;5028333;28;20217;-83
2021/12/17 09:02:22;;;;;;;12.43;7.23;;;;;;;7.43;95.90;103117.19;5046956;28;20576;-83
2021/12/17 09:04:49;;;;;;;12.10;6.63;;;;;;;7.44;96.13;103118.06;5029126;28;20210;-82
2021/12/17 09:07:15;;;;;;;10.57;5.93;;;;;;;7.45;95.61;103133.06;5045004;28;20210;-83
2021/12/17 09:09:44;;;;;;;9.63;5.80;;;;;;;7.46;95.42;103140.13;5031627;28;20202;-83
2021/12/17 09:12:11;;;;;;;11.00;5.93;;;;;;;7.44;95.37;103132.19;5030895;28;20286;-83
2021/12/17 09:14:40;;;;;;;12.03;6.57;;;;;;;7.42;95.74;103122.50;5037119;28;20209;-82
2021/12/17 09:17:07;;;;;;;10.23;6.33;;;;;;;7.41;95.23;103126.03;5040703;28;20219;-82
2021/12/17 09:19:33;;;;;;;13.00;6.70;;;;;;;7.39;95.15;103134.00;5050507;28;20226;-83
2021/12/17 09:22:00;;;;;;;10.73;6.47;;;;;;;7.39;95.96;103133.13;5054053;28;20226;-82
2021/12/17 09:24:28;;;;;;;12.93;8.07;;;;;;;7.40;95.24;103142.84;5043358;28;20232;-82
2021/12/17 09:26:55;;;;;;;14.03;9.10;;;;;;;7.39;94.99;103134.00;5035407;28;20237;-82
2021/12/17 09:29:21;;;;;;;13.20;7.70;;;;;;;7.39;95.34;103144.63;5034048;28;20206;-82
2021/12/17 09:31:50;;;;;;;13.13;8.20;;;;;;;7.39;95.44;103149.03;5041721;28;20202;-82
2021/12/17 09:34:16;;;;;;;12.47;8.30;;;;;;;7.40;95.13;103158.75;5049031;28;20209;-82
2021/12/17 09:36:43;;;;;;;14.83;8.57;;;;;;;7.41;94.96;103141.94;5043947;28;20234;-82
2021/12/17 09:39:09;;;;;;;14.53;9.07;;;;;;;7.40;95.17;103133.13;5027225;28;20210;-82
2021/12/17 09:41:37;;;;;;;16.47;9.50;;;;;;;7.39;94.76;103147.25;5032597;28;20269;-82
2021/12/17 09:44:04;;;;;;;14.13;8.13;;;;;;;7.38;94.70;103142.84;5048362;28;20212;-82
2021/12/17 09:46:31;;;;;;;13.67;8.30;;;;;;;7.37;94.71;103140.22;5043183;28;20226;-82
2021/12/17 09:48:59;;;;;;;14.03;8.67;;;;;;;7.38;94.78;103139.31;5040826;28;20205;-82
2021/12/17 09:51:26;;;;;;;15.57;8.77;;;;;;;7.36;94.43;103144.63;5043025;28;20213;-83
2021/12/17 09:53:52;;;;;;;14.80;8.97;;;;;;;7.35;95.03;103136.69;5041320;28;20298;-82
2021/12/17 09:56:19;;;;;;;13.30;8.50;;;;;;;7.33;94.47;103147.34;5041777;28;20231;-82
2021/12/17 09:58:45;;;;;;;14.60;9.43;;;;;;;7.33;94.30;103144.69;5042905;28;20859;-82
2021/12/17 10:01:12;;;;;;;16.20;9.37;;;;;;;7.34;94.32;103162.38;5047855;28;20292;-82
2021/12/17 10:03:39;;;;;;;16.47;9.40;;;;;;;7.34;93.77;103164.13;5029987;28;20198;-83
2021/12/17 10:06:20;;;;;;;15.77;9.47;;;;;;;7.34;94.37;103161.47;5040013;28;20330;-82
2021/12/17 10:08:48;;;;;;;16.10;9.73;;;;;;;7.35;93.80;103152.59;5055155;28;20217;-82
2021/12/17 10:11:18;;;;;;;13.57;8.90;;;;;;;7.35;93.97;103158.78;5038531;28;20210;-83
2021/12/17 10:13:45;;;;;;;13.70;8.70;;;;;;;7.36;94.52;103151.72;5039101;28;20206;-82
2021/12/17 10:16:12;;;;;;;11.40;7.13;;;;;;;7.36;93.88;103162.31;5038732;28;20230;-82
2021/12/17 10:18:41;;;;;;;7.77;5.40;;;;;;;7.35;94.09;103171.16;5040458;28;20577;-82
2021/12/17 10:21:10;;;;;;;8.03;4.53;;;;;;;7.32;94.08;103177.41;5052879;28;20213;-82
2021/12/17 10:23:41;;;;;;;7.47;4.30;;;;;;;7.30;94.15;103182.72;5026353;28;20194;-82
2021/12/17 10:26:12;;;;;;;6.90;4.93;;;;;;;7.29;94.00;103186.25;5038969;28;20722;-82
2021/12/17 10:28:38;;;;;;;8.83;5.43;;;;;;;7.28;94.13;103181.84;5033046;28;20211;-82
2021/12/17 10:31:10;;;;;;;8.67;5.93;;;;;;;7.26;93.94;103175.69;5050259;28;20205;-82
2021/12/17 10:33:37;;;;;;;7.27;4.60;;;;;;;7.23;94.12;103169.53;5022483;28;20225;-82
2021/12/17 10:36:04;;;;;;;7.30;4.33;;;;;;;7.19;93.57;103160.72;5048528;28;20591;-82
2021/12/17 10:38:35;;;;;;;6.37;4.00;;;;;;;7.18;93.60;103173.97;5046769;28;20245;-82
2021/12/17 10:41:05;;;;;;;6.00;3.40;;;;;;;7.18;93.24;103182.81;5040729;28;20185;-82
2021/12/17 10:43:37;;;;;;;5.93;3.40;;;;;;;7.15;92.88;103171.38;5051867;28;20222;-83
2021/12/17 10:46:09;;;;;;;5.63;3.47;;;;;;;7.14;92.92;103183.75;5049208;28;20226;-82
2021/12/17 10:48:48;;;;;;;5.17;3.90;;;;;;;7.14;93.15;103177.56;5037806;28;20202;-82
2021/12/17 10:51:29;;;;;;;5.83;4.03;;;;;;;7.11;92.51;103177.59;5029949;28;20193;-82
2021/12/17 10:53:59;;;;;;;6.37;4.10;;;;;;;7.09;92.48;103182.03;5036478;28;20234;-82
2021/12/17 10:56:28;;;;;;;5.10;3.40;;;;;;;7.11;92.85;103185.53;5049636;28;20221;-82
2021/12/17 10:58:57;;;;;;;4.63;3.03;;;;;;;7.09;92.53;103185.56;5040434;28;20224;-82
2021/12/17 11:01:36;;;;;;;3.57;2.17;;;;;;;7.09;92.58;103180.25;5045708;28;20216;-82
2021/12/17 11:04:08;;;;;;;4.30;2.87;;;;;;;7.10;92.71;103173.19;5048092;28;20662;-81
2021/12/17 11:06:46;;;;;;;6.57;3.90;;;;;;;7.09;92.54;103168.78;5035085;28;20229;-82
2021/12/17 11:09:35;;;;;;;7.60;5.13;;;;;;;7.08;92.26;103161.72;5038473;28;20202;-82
2021/12/17 11:12:06;;;;;;;9.40;5.97;;;;;;;7.09;92.29;103172.31;5028413;28;20206;-82
2021/12/17 11:14:33;;;;;;;8.77;6.70;;;;;;;7.07;92.26;103163.47;5041420;28;20256;-82
2021/12/17 11:17:00;;;;;;;9.03;6.30;;;;;;;7.08;92.51;103164.38;5047458;28;20221;-81
2021/12/17 11:19:27;;;;;;;10.53;7.03;;;;;;;7.09;91.66;103174.06;5053116;28;20221;-82
2021/12/17 11:21:55;;;;;;;10.47;6.83;;;;;;;7.10;91.92;103165.22;5034081;28;20227;-82
2021/12/17 11:24:24;;;;;;;12.37;7.17;;;;;;;7.09;92.04;103161.69;5039594;28;20210;-81
2021/12/17 11:26:51;;;;;;;9.40;6.13;;;;;;;7.09;91.88;103155.53;5040016;28;20231;-81
2021/12/17 11:29:18;;;;;;;9.63;6.20;;;;;;;7.08;91.45;103164.38;5039403;28;20209;-81
2021/12/17 11:31:45;;;;;;;9.90;6.37;;;;;;;7.08;92.32;103154.63;5044661;28;20221;-82
2021/12/17 11:34:11;;;;;;;10.80;6.70;;;;;;;7.11;92.21;103153.75;5056286;28;20212;-81
2021/12/17 11:36:38;;;;;;;7.17;5.43;;;;;;;7.13;91.76;103158.13;5047375;28;20235;-81
2021/12/17 11:39:16;;;;;;;8.23;5.33;;;;;;;7.15;91.74;103155.47;5036685;28;20203;-81
2021/12/17 11:41:52;;;;;;;9.27;5.67;;;;;;;7.18;91.41;103160.72;5035379;28;20202;-81
2021/12/17 11:44:21;;;;;;;8.03;5.20;;;;;;;7.19;92.04;103157.19;5040930;28;20205;-81
2021/12/17 11:47:01;;;;;;;7.83;4.60;;;;;;;7.21;92.21;103152.75;5047025;28;20312;-81
2021/12/17 11:49:34;;;;;;;9.57;4.77;;;;;;;7.22;91.23;103151.84;5039922;28;20198;-81
2021/12/17 11:52:01;;;;;;;6.60;4.00;;;;;;;7.24;91.71;103158.91;5055125;28;20197;-81
2021/12/17 11:54:31;;;;;;;5.80;3.73;;;;;;;7.26;91.84;103161.53;5050224;28;20208;-81
2021/12/17 11:57:07;;;;;;;5.70;3.20;;;;;;;7.26;91.71;103161.53;5062776;28;20225;-81
2021/12/17 11:59:38;;;;;;;4.57;3.17;;;;;;;7.27;91.81;103169.47;5040413;28;20293;-81
2021/12/17 12:02:11;;;;;;;6.47;3.60;;;;;;;7.30;91.60;103168.56;5055696;28;20268;-81
2021/12/17 12:04:57;;;;;;;5.53;3.83;;;;;;;7.31;91.56;103163.25;5060804;28;20209;-81
2021/12/17 12:07:36;;;;;;;7.10;4.07;;;;;;;7.34;91.48;103169.44;5048350;28;20557;-81
2021/12/17 12:10:21;;;;;;;6.60;4.03;;;;;;;7.35;90.97;103166.75;5037340;28;20274;-81
2021/12/17 12:13:33;;;;;;;5.10;3.13;;;;;;;7.37;91.39;103158.78;5037578;28;20208;-81
2021/12/17 12:16:02;;;;;;;5.50;3.77;;;;;;;7.39;91.31;103162.28;5035728;28;20716;-81
2021/12/17 12:18:40;;;;;;;4.90;3.67;;;;;;;7.38;91.50;103169.38;5042460;28;20206;-81
2021/12/17 12:21:07;;;;;;;4.53;3.67;;;;;;;7.39;91.39;103159.63;5034638;28;20202;-81
2021/12/17 12:23:43;;;;;;;5.10;3.67;;;;;;;7.37;91.31;103159.66;5037949;28;20651;-81
2021/12/17 12:26:40;;;;;;;5.17;3.70;;;;;;;7.37;91.06;103161.41;5038336;28;20255;-81
2021/12/17 12:29:27;;;;;;;7.67;4.37;;;;;;;7.37;91.08;103153.47;5034667;28;20215;-81
2021/12/17 12:31:59;;;;;;;5.47;4.03;;;;;;;7.38;90.85;103165.84;5039864;28;20324;-81
2021/12/17 12:34:41;;;;;;;6.03;4.40;;;;;;;7.39;91.31;103157.88;5052921;28;20413;-81
2021/12/17 12:37:33;;;;;;;6.83;4.70;;;;;;;7.40;91.37;103146.38;5041206;28;20226;-81
2021/12/17 12:40:16;;;;;;;5.87;4.20;;;;;;;7.43;90.60;103140.16;5037843;28;20202;-81
2021/12/17 12:42:50;;;;;;;7.43;5.23;;;;;;;7.43;91.03;103141.03;5039613;28;20676;-81
2021/12/17 12:45:18;;;;;;;7.27;5.00;;;;;;;7.45;90.68;103143.69;5032808;28;20770;-80
2021/12/17 12:47:50;;;;;;;8.30;4.97;;;;;;;7.46;91.67;103138.38;5031157;28;20203;-81
2021/12/17 12:50:20;;;;;;;8.03;5.17;;;;;;;7.47;91.57;103137.47;5042397;28;20195;-81
2021/12/17 12:52:51;;;;;;;8.70;5.70;;;;;;;7.48;91.70;103139.22;5039216;28;20270;-81
2021/12/17 12:55:20;;;;;;;10.73;6.67;;;;;;;7.50;91.15;103132.13;5054263;28;20235;-81
2021/12/17 12:57:50;;;;;;;9.80;5.53;;;;;;;7.50;90.87;103124.19;5045617;28;20211;-81
2021/12/17 13:00:21;;;;;;;8.57;5.10;;;;;;;7.51;91.56;103133.91;5041141;28;20285;-81
2021/12/17 13:02:51;;;;;;;9.77;5.87;;;;;;;7.51;91.20;103115.34;5038278;28;20225;-81
2021/12/17 13:05:18;;;;;;;8.67;5.80;;;;;;;7.54;91.76;103125.88;5052242;28;20733;-81
2021/12/17 13:07:48;;;;;;;9.73;5.97;;;;;;;7.57;91.98;103123.19;5045603;28;20210;-81
2021/12/17 13:10:18;;;;;;;11.87;7.87;;;;;;;7.57;91.63;103115.25;5041071;28;20206;-81
2021/12/17 13:12:50;;;;;;;12.10;7.57;;;;;;;7.58;91.45;103119.66;5036791;28;20215;-81
2021/12/17 13:15:32;;;;;;;10.57;6.73;;;;;;;7.60;91.82;103111.69;5036497;28;20669;-81
2021/12/17 13:20:59;;;;;;;12.23;6.63;;;;;;;7.60;91.72;103112.56;5028557;28;20226;-81
2021/12/17 13:23:25;;;;;;;10.70;6.67;;;;;;;7.61;91.71;103118.75;5030447;28;20226;-81
2021/12/17 13:26:03;;;;;;;12.73;6.70;;;;;;;7.61;91.58;103118.75;5031352;28;20230;-81
2021/12/17 13:28:46;;;;;;;10.33;7.03;;;;;;;7.61;91.21;103121.41;5029550;28;20203;-81
2021/12/17 13:31:27;;;;;;;10.30;6.67;;;;;;;7.61;91.93;103114.31;5026660;28;20212;-81
2021/12/17 13:33:53;;;;;;;9.20;6.13;;;;;;;7.61;92.18;103119.63;5030465;28;20269;-81
2021/12/17 13:36:20;;;;;;;9.53;5.30;;;;;;;7.61;91.54;103113.44;5027176;28;20227;-82
2021/12/17 13:38:46;;;;;;;8.40;6.00;;;;;;;7.60;91.86;103112.56;5026395;28;20614;-82
2021/12/17 13:41:17;;;;;;;9.80;6.30;;;;;;;7.60;92.10;103120.50;5037845;28;20692;-82
2021/12/17 13:43:43;;;;;;;8.53;5.03;;;;;;;7.61;91.75;103119.63;5034790;28;20236;-82
2021/12/17 13:46:10;;;;;;;9.00;5.77;;;;;;;7.62;91.36;103131.09;5032791;28;20704;-81
2021/12/17 13:48:38;;;;;;;8.97;5.70;;;;;;;7.59;91.57;103124.06;5032454;28;20216;-81